Time;durP1;ratioP1;P1;durP2;ratioP2;P2;SDS_P1;SDS_P2;PMS_P1;PMS_P2;Temp;Humidity;BMP_temperature;BMP_pressure;BME280_temperature;BME280_humidity;BME280_pressure;Samples;Min_cycle;Max_cycle;Signal;HPM_P1;HPM_P2
2021/06/22 00:08:56;;;;;;;2.12;1.60;;;17.40;99.90;;;;;;6730357;88;20230;-78
2021/06/22 00:18:57;;;;;;;1.90;1.50;;;17.20;99.90;;;;;;6728489;88;20649;-79
2021/06/22 00:28:57;;;;;;;2.20;1.70;;;17.20;99.90;;;;;;6732183;88;21085;-79
2021/06/22 00:38:58;;;;;;;2.17;1.70;;;17.20;99.90;;;;;;6731692;88;20960;-79
2021/06/22 00:48:59;;;;;;;2.65;1.70;;;17.10;99.90;;;;;;6734833;88;20230;-79
2021/06/22 00:59:00;;;;;;;2.92;1.70;;;17.20;99.90;;;;;;6734690;88;20343;-79
2021/06/22 01:09:02;;;;;;;2.78;1.90;;;17.20;99.90;;;;;;6735154;88;20198;-79
2021/06/22 01:19:06;;;;;;;2.85;1.83;;;17.20;99.90;;;;;;6732338;88;20248;-79
2021/06/22 01:29:08;;;;;;;4.28;1.92;;;17.10;99.90;;;;;;6724929;88;20229;-79
2021/06/22 01:39:13;;;;;;;3.83;1.60;;;17.10;99.90;;;;;;6730011;88;20283;-79
2021/06/22 01:49:13;;;;;;;2.33;1.65;;;16.90;99.90;;;;;;6729013;88;20198;-80
2021/06/22 01:59:14;;;;;;;2.47;1.42;;;16.90;99.90;;;;;;6735754;88;20177;-78
2021/06/22 02:09:15;;;;;;;2.50;1.50;;;16.70;99.90;;;;;;6731265;88;20255;-78
2021/06/22 02:19:16;;;;;;;3.35;1.50;;;16.70;99.90;;;;;;6731541;88;20280;-80
2021/06/22 02:29:16;;;;;;;2.53;1.58;;;16.50;99.90;;;;;;6731206;88;20228;-79
2021/06/22 02:39:17;;;;;;;2.50;1.55;;;16.50;99.90;;;;;;6730335;88;20201;-78
2021/06/22 02:49:17;;;;;;;3.08;1.85;;;16.50;99.90;;;;;;6738664;88;20217;-79
2021/06/22 02:59:18;;;;;;;3.65;1.80;;;16.40;99.90;;;;;;6733287;88;20216;-79
2021/06/22 03:09:19;;;;;;;4.53;1.87;;;16.30;99.90;;;;;;6732786;88;20185;-79
2021/06/22 03:19:20;;;;;;;3.17;1.80;;;16.20;99.90;;;;;;6732969;88;20206;-79
2021/06/22 03:29:22;;;;;;;4.18;2.10;;;16.10;99.90;;;;;;6727803;88;20213;-78
2021/06/22 03:39:23;;;;;;;5.85;2.25;;;16.00;99.90;;;;;;6737919;88;20602;-79
2021/06/22 03:49:24;;;;;;;2.85;2.00;;;15.90;99.90;;;;;;6745077;88;20229;-78
2021/06/22 03:59:24;;;;;;;2.92;2.10;;;15.80;99.90;;;;;;6733642;88;20218;-79
2021/06/22 04:09:26;;;;;;;4.78;2.50;;;15.80;99.90;;;;;;6737024;88;20353;-78
2021/06/22 04:19:27;;;;;;;3.95;2.42;;;15.80;99.90;;;;;;6741314;88;20241;-78
2021/06/22 04:29:27;;;;;;;4.72;2.53;;;15.80;99.90;;;;;;6748421;88;20316;-79
2021/06/22 04:39:48;;;;;;;4.55;2.45;;;15.90;99.90;;;;;;6720547;77;20682;-77
2021/06/22 04:49:49;;;;;;;4.80;2.78;;;15.90;99.90;;;;;;6752050;88;20196;-77
2021/06/22 04:59:50;;;;;;;4.32;2.70;;;15.80;99.90;;;;;;6739535;88;20663;-77
2021/06/22 05:09:50;;;;;;;5.85;2.47;;;15.80;99.90;;;;;;6756329;87;20226;-77
2021/06/22 05:19:51;;;;;;;4.53;2.95;;;15.80;99.90;;;;;;6758457;87;20229;-77
2021/06/22 05:29:52;;;;;;;4.53;2.70;;;15.90;99.90;;;;;;6765477;88;20200;-78
2021/06/22 05:39:52;;;;;;;4.55;2.20;;;16.00;99.90;;;;;;6760295;88;20643;-78
2021/06/22 05:49:53;;;;;;;4.50;2.28;;;16.00;99.90;;;;;;6771628;87;20254;-77
2021/06/22 05:59:53;;;;;;;3.53;2.10;;;16.00;99.90;;;;;;6758247;88;20179;-78
2021/06/22 06:09:54;;;;;;;6.12;2.03;;;16.00;99.90;;;;;;6752567;88;20221;-78
2021/06/22 06:19:54;;;;;;;4.28;2.58;;;16.20;99.90;;;;;;6754737;88;20619;-78
2021/06/22 06:39:55;;;;;;;5.22;2.47;;;16.50;99.90;;;;;;6763864;87;20543;-81
2021/06/22 06:49:56;;;;;;;3.63;2.13;;;16.50;99.90;;;;;;6756636;87;20239;-78
2021/06/22 06:59:57;;;;;;;6.18;2.10;;;16.60;99.90;;;;;;6752831;88;20193;-77
2021/06/22 07:09:57;;;;;;;5.28;1.95;;;16.60;99.90;;;;;;6749151;87;20223;-78
2021/06/22 07:19:58;;;;;;;3.55;2.30;;;16.60;99.90;;;;;;6755812;88;20304;-79
2021/06/22 07:29:58;;;;;;;3.75;2.10;;;16.80;99.90;;;;;;6749251;87;20176;-79
2021/06/22 07:39:59;;;;;;;5.30;2.30;;;17.00;99.90;;;;;;6760935;87;20254;-79
2021/06/22 07:49:59;;;;;;;4.43;2.05;;;17.20;99.90;;;;;;6765105;88;20675;-79
2021/06/22 08:00:17;;;;;;;3.30;1.73;;;17.30;99.90;;;;;;6760524;88;20255;-80
2021/06/22 08:10:18;;;;;;;2.30;1.40;;;17.30;99.90;;;;;;6763855;88;20505;-78
2021/06/22 08:20:19;;;;;;;3.37;1.30;;;17.40;99.90;;;;;;6766562;88;20196;-79
2021/06/22 08:30:23;;;;;;;2.95;1.60;;;17.60;99.90;;;;;;6768046;88;20447;-79
2021/06/22 08:40:24;;;;;;;5.25;1.60;;;18.00;99.90;;;;;;6767173;88;20213;-79
2021/06/22 08:50:24;;;;;;;2.20;1.33;;;18.40;99.90;;;;;;6762523;88;20426;-80
2021/06/22 09:00:26;;;;;;;1.70;1.08;;;18.60;99.90;;;;;;6765061;88;20191;-79
2021/06/22 09:10:34;;;;;;;2.30;1.12;;;18.60;99.90;;;;;;6764172;88;20297;-79
2021/06/22 09:20:41;;;;;;;2.12;1.20;;;18.50;99.90;;;;;;6765368;88;20160;-79
2021/06/22 09:30:43;;;;;;;4.35;1.50;;;18.40;99.90;;;;;;6761150;88;20396;-79
2021/06/22 09:40:43;;;;;;;2.60;1.50;;;18.30;99.90;;;;;;6760816;88;20723;-78
2021/06/22 09:50:48;;;;;;;3.50;1.60;;;18.60;99.90;;;;;;6761962;88;20217;-80
2021/06/22 10:00:49;;;;;;;2.60;1.67;;;18.60;99.90;;;;;;6764567;88;20202;-79
2021/06/22 10:10:49;;;;;;;3.10;1.80;;;18.90;99.90;;;;;;6763442;88;20262;-78
2021/06/22 10:20:50;;;;;;;4.75;2.10;;;18.80;99.90;;;;;;6762198;88;20229;-78
2021/06/22 10:30:51;;;;;;;6.40;2.37;;;18.40;99.90;;;;;;6761290;88;20204;-79
2021/06/22 10:40:57;;;;;;;6.15;2.80;;;18.40;99.90;;;;;;6753333;88;20212;-78
2021/06/22 10:50:58;;;;;;;6.72;2.40;;;18.30;99.90;;;;;;6771524;88;20217;-81
2021/06/22 11:00:58;;;;;;;4.28;2.50;;;18.60;99.90;;;;;;6778682;88;20208;-83
2021/06/22 11:10:59;;;;;;;4.35;2.80;;;19.20;99.90;;;;;;6765458;88;20221;-79
2021/06/22 11:21:05;;;;;;;5.70;2.58;;;18.80;99.90;;;;;;6763682;88;20203;-80
2021/06/22 11:31:06;;;;;;;3.90;2.47;;;18.70;99.90;;;;;;6762087;88;20184;-80
2021/06/22 11:41:16;;;;;;;6.57;2.80;;;18.80;99.90;;;;;;6763816;88;20617;-80
2021/06/22 11:51:16;;;;;;;5.93;2.90;;;19.00;99.90;;;;;;6747691;88;20218;-79
2021/06/22 12:01:19;;;;;;;4.85;2.78;;;18.90;99.90;;;;;;6746806;88;20196;-80
2021/06/22 12:11:34;;;;;;;6.05;3.00;;;18.70;99.90;;;;;;6746765;88;20188;-79
2021/06/22 12:21:38;;;;;;;6.68;3.50;;;18.70;99.90;;;;;;6746285;88;20177;-80
2021/06/22 12:31:47;;;;;;;;;;;18.50;99.90;;;;;;6749238;88;20180;-79
2021/06/22 12:41:48;;;;;;;8.10;4.32;;;18.60;99.90;;;;;;6759414;88;20086;-79
2021/06/22 12:51:49;;;;;;;7.00;4.12;;;18.10;99.90;;;;;;6759051;87;20173;-81
2021/06/22 13:01:54;;;;;;;7.62;4.40;;;18.00;99.90;;;;;;6759080;88;20196;-80
2021/06/22 13:12:00;;;;;;;8.97;4.57;;;17.70;99.90;;;;;;6756895;88;20201;-78
2021/06/22 13:22:03;;;;;;;9.50;4.43;;;17.70;99.90;;;;;;6757613;88;20253;-77
2021/06/22 13:32:04;;;;;;;6.62;4.15;;;17.70;99.90;;;;;;6743400;88;20757;-80
2021/06/22 13:42:12;;;;;;;7.67;4.50;;;17.70;99.90;;;;;;6744162;88;20233;-79
2021/06/22 13:52:13;;;;;;;8.25;4.70;;;17.60;99.90;;;;;;6759936;88;20517;-79
2021/06/22 14:02:13;;;;;;;11.38;5.20;;;17.50;99.90;;;;;;6755422;88;20246;-80
2021/06/22 14:12:14;;;;;;;10.03;5.50;;;17.10;99.90;;;;;;6754305;87;20208;-79
2021/06/22 14:22:14;;;;;;;8.18;5.65;;;16.90;99.90;;;;;;6745941;88;20706;-79
2021/06/22 14:32:16;;;;;;;11.95;6.53;;;16.80;99.90;;;;;;6749717;88;20206;-79
2021/06/22 14:42:16;;;;;;;10.70;6.65;;;16.70;99.90;;;;;;6758094;87;20275;-78
2021/06/22 14:52:17;;;;;;;10.10;6.35;;;16.90;99.90;;;;;;6756436;88;20272;-79
2021/06/22 15:02:18;;;;;;;11.25;6.12;;;16.90;99.90;;;;;;6762960;88;20253;-79
2021/06/22 15:12:19;;;;;;;10.35;6.45;;;17.10;99.90;;;;;;6761464;88;20726;-79
2021/06/22 15:22:20;;;;;;;13.35;7.55;;;17.20;99.90;;;;;;6759686;88;20310;-79
2021/06/22 15:32:20;;;;;;;14.77;8.40;;;17.00;99.90;;;;;;6757253;88;21023;-79
2021/06/22 15:42:21;;;;;;;15.93;9.55;;;16.90;99.90;;;;;;6763693;88;20202;-78
2021/06/22 15:52:22;;;;;;;15.57;9.23;;;16.60;99.90;;;;;;6755191;88;20745;-78
2021/06/22 16:02:23;;;;;;;14.77;9.15;;;16.70;99.90;;;;;;6762040;88;20277;-79
2021/06/22 16:12:24;;;;;;;11.12;7.75;;;17.10;99.90;;;;;;6768970;87;20214;-80
2021/06/22 16:22:24;;;;;;;11.57;7.55;;;17.00;99.90;;;;;;6772737;87;20284;-78
2021/06/22 16:32:25;;;;;;;10.48;7.15;;;17.10;99.90;;;;;;6751627;88;20209;-79
2021/06/22 16:42:26;;;;;;;16.83;8.02;;;16.90;99.90;;;;;;6759382;88;20658;-79
2021/06/22 16:52:26;;;;;;;13.82;8.55;;;16.60;99.90;;;;;;6750701;88;20642;-78
2021/06/22 17:02:27;;;;;;;12.98;8.38;;;16.40;99.90;;;;;;6757329;87;20208;-78
2021/06/22 17:12:27;;;;;;;14.43;8.63;;;16.30;99.90;;;;;;6748384;88;20618;-78
2021/06/22 17:22:28;;;;;;;13.98;9.45;;;16.20;99.90;;;;;;6754536;87;20560;-79
2021/06/22 17:32:29;;;;;;;15.50;10.10;;;16.10;99.90;;;;;;6750800;87;20204;-78
2021/06/22 17:42:29;;;;;;;16.30;10.67;;;16.10;99.90;;;;;;6751307;88;20188;-76
2021/06/22 17:52:30;;;;;;;18.50;11.20;;;16.10;99.90;;;;;;6751417;87;20517;-78
2021/06/22 18:02:30;;;;;;;16.25;10.60;;;15.90;99.90;;;;;;6749654;88;20876;-78
2021/06/22 18:12:31;;;;;;;21.60;11.12;;;15.70;99.90;;;;;;6751471;88;20252;-78
2021/06/22 18:22:32;;;;;;;21.80;11.45;;;15.90;99.90;;;;;;6754472;87;20676;-78
2021/06/22 18:32:33;;;;;;;18.67;11.18;;;16.00;99.90;;;;;;6759151;87;20254;-79
2021/06/22 18:42:33;;;;;;;19.48;11.50;;;16.00;99.90;;;;;;6759626;87;20181;-78
2021/06/22 18:52:34;;;;;;;17.87;10.93;;;16.20;99.90;;;;;;6749584;87;20342;-78
2021/06/22 19:02:35;;;;;;;18.62;11.52;;;16.10;99.90;;;;;;6751363;88;20302;-79
2021/06/22 19:12:36;;;;;;;17.83;12.18;;;16.00;99.90;;;;;;6748972;87;20666;-77
2021/06/22 19:22:38;;;;;;;19.98;13.18;;;15.80;99.90;;;;;;6757083;88;20192;-78
2021/06/22 19:32:39;;;;;;;22.83;13.55;;;15.90;99.90;;;;;;6758032;87;20224;-79
2021/06/22 19:42:40;;;;;;;24.77;14.38;;;15.70;99.90;;;;;;6751387;87;20210;-79
2021/06/22 19:52:40;;;;;;;26.10;14.23;;;15.60;99.90;;;;;;6757808;87;20201;-78
2021/06/22 20:02:41;;;;;;;20.90;14.05;;;15.70;99.90;;;;;;6754758;88;20587;-77
2021/06/22 20:12:42;;;;;;;24.90;14.70;;;15.60;99.90;;;;;;6751436;88;20216;-77
2021/06/22 20:22:43;;;;;;;24.08;14.27;;;15.60;99.90;;;;;;6754998;87;20208;-78
2021/06/22 20:32:44;;;;;;;21.60;14.52;;;15.60;99.90;;;;;;6756550;87;20218;-78
2021/06/22 20:42:45;;;;;;;21.92;14.48;;;15.40;99.90;;;;;;6756496;88;20222;-77
2021/06/22 20:52:45;;;;;;;24.52;14.60;;;15.40;99.90;;;;;;6755527;87;20196;-79
2021/06/22 21:02:46;;;;;;;22.87;14.00;;;15.50;99.90;;;;;;6756513;88;20200;-78
2021/06/22 21:12:47;;;;;;;26.08;14.05;;;15.70;99.90;;;;;;6754783;87;20188;-78
2021/06/22 21:22:47;;;;;;;22.10;14.87;;;15.60;99.90;;;;;;6754543;87;20205;-78
2021/06/22 21:32:48;;;;;;;22.80;15.48;;;15.50;99.90;;;;;;6753854;88;20214;-78
2021/06/22 21:42:49;;;;;;;26.20;16.10;;;15.60;99.90;;;;;;6763101;88;20223;-78
2021/06/22 21:52:49;;;;;;;26.02;15.93;;;15.50;99.90;;;;;;6755207;87;20267;-78
2021/06/22 22:02:50;;;;;;;26.50;15.88;;;15.50;99.90;;;;;;6768852;87;20218;-78
2021/06/22 22:12:51;;;;;;;27.08;16.27;;;15.50;99.90;;;;;;6754510;88;20191;-76
2021/06/22 22:22:52;;;;;;;26.17;15.60;;;15.50;99.90;;;;;;6752399;88;20194;-76
2021/06/22 22:32:52;;;;;;;25.55;14.73;;;15.50;99.90;;;;;;6753907;87;20653;-79
2021/06/22 22:42:53;;;;;;;21.40;15.35;;;15.50;99.90;;;;;;6753742;88;20250;-78
2021/06/22 22:52:53;;;;;;;21.83;14.52;;;15.40;99.90;;;;;;6755350;87;20204;-77
2021/06/22 23:02:54;;;;;;;20.90;13.65;;;15.50;99.90;;;;;;6757943;87;20192;-78
2021/06/22 23:12:54;;;;;;;22.80;14.40;;;15.60;99.90;;;;;;6754570;88;20183;-79
2021/06/22 23:22:55;;;;;;;24.37;14.68;;;15.80;99.90;;;;;;6758360;88;20749;-79
2021/06/22 23:32:56;;;;;;;23.73;13.75;;;15.60;99.90;;;;;;6758902;88;20184;-78
2021/06/22 23:42:56;;;;;;;24.52;14.77;;;15.80;99.90;;;;;;6754642;88;20210;-79
2021/06/22 23:52:58;;;;;;;22.15;13.65;;;15.70;99.90;;;;;;6756630;88;20689;-78
